createdAt,value
2017-11-27T00:02:01.216Z,6.77
2017-11-27T00:04:28.645Z,6.00
2017-11-27T00:06:56.844Z,5.90
2017-11-27T00:09:24.314Z,6.27
2017-11-27T00:11:51.722Z,6.80
2017-11-27T00:14:19.923Z,5.07
2017-11-27T00:16:47.351Z,5.33
2017-11-27T00:19:15.536Z,6.17
2017-11-27T00:21:43.748Z,4.80
2017-11-27T00:24:14.940Z,5.60
2017-11-27T00:26:42.365Z,5.40
2017-11-27T00:29:09.831Z,6.40
2017-11-27T00:31:37.235Z,5.53
2017-11-27T00:34:04.666Z,6.67
2017-11-27T00:36:32.439Z,6.37
2017-11-27T00:38:59.860Z,5.93
2017-11-27T00:41:27.295Z,6.20
2017-11-27T00:43:54.708Z,5.40
2017-11-27T00:46:22.924Z,6.60
2017-11-27T00:48:50.338Z,5.57
2017-11-27T00:51:18.534Z,6.37
2017-11-27T00:53:45.966Z,6.20
2017-11-27T00:56:26.009Z,5.83
2017-11-27T00:58:53.446Z,5.83
2017-11-27T01:01:20.872Z,5.60
2017-11-27T01:03:49.316Z,5.43
2017-11-27T01:06:16.741Z,4.80
2017-11-27T01:08:44.172Z,4.63
2017-11-27T01:11:11.606Z,5.93
2017-11-27T01:13:39.041Z,6.00
2017-11-27T01:16:07.228Z,5.30
2017-11-27T01:18:35.435Z,6.20
2017-11-27T01:21:02.857Z,5.43
2017-11-27T01:23:31.048Z,5.90
2017-11-27T01:25:58.462Z,5.60
2017-11-27T01:28:25.897Z,6.00
2017-11-27T01:30:53.329Z,6.30
2017-11-27T01:33:20.758Z,6.47
2017-11-27T01:35:48.954Z,6.40
2017-11-27T01:38:16.385Z,5.30
2017-11-27T01:40:44.585Z,5.27
2017-11-27T01:43:12.005Z,5.67
2017-11-27T01:45:39.433Z,5.23
2017-11-27T01:48:06.855Z,4.63
2017-11-27T01:50:34.285Z,5.33
2017-11-27T01:53:02.481Z,5.03
2017-11-27T01:55:29.908Z,5.53
2017-11-27T01:57:57.330Z,5.70
2017-11-27T02:00:24.773Z,5.63
2017-11-27T02:02:52.199Z,5.63
2017-11-27T02:05:19.634Z,5.90
2017-11-27T02:07:47.061Z,5.50
2017-11-27T02:10:14.502Z,5.83
2017-11-27T02:12:41.929Z,6.20
2017-11-27T02:15:11.198Z,5.80
2017-11-27T02:17:38.633Z,5.90
2017-11-27T02:20:06.060Z,6.40
2017-11-27T02:22:33.501Z,5.67
2017-11-27T02:25:00.925Z,6.70
2017-11-27T02:27:28.340Z,6.07
2017-11-27T02:29:55.777Z,5.03
2017-11-27T02:32:23.194Z,5.43
2017-11-27T02:34:50.632Z,5.60
2017-11-27T02:37:18.040Z,5.20
2017-11-27T02:39:45.481Z,6.17
2017-11-27T02:42:13.657Z,5.77
2017-11-27T02:44:41.862Z,5.77
2017-11-27T02:47:09.290Z,5.37
2017-11-27T02:49:37.476Z,5.87
2017-11-27T02:52:04.901Z,5.47
2017-11-27T02:54:32.329Z,5.97
2017-11-27T02:56:59.756Z,5.63
2017-11-27T02:59:27.185Z,5.63
2017-11-27T03:01:55.375Z,5.33
2017-11-27T03:04:22.802Z,5.53
2017-11-27T03:06:50.233Z,5.50
2017-11-27T03:09:18.422Z,4.53
2017-11-27T03:11:45.848Z,5.27
2017-11-27T03:14:13.272Z,5.03
2017-11-27T03:16:40.707Z,5.50
2017-11-27T03:19:08.121Z,4.43
2017-11-27T03:21:35.549Z,6.97
2017-11-27T03:24:02.978Z,5.60
2017-11-27T03:26:30.420Z,4.97
2017-11-27T03:28:57.843Z,4.90
2017-11-27T03:31:25.270Z,6.27
2017-11-27T03:33:53.453Z,5.67
2017-11-27T03:36:20.886Z,5.27
2017-11-27T03:38:49.081Z,5.77
2017-11-27T03:41:16.514Z,5.17
2017-11-27T03:43:44.712Z,5.30
2017-11-27T03:46:12.889Z,5.20
2017-11-27T03:48:40.340Z,6.27
2017-11-27T03:51:07.749Z,5.10
2017-11-27T03:53:35.185Z,4.60
2017-11-27T03:56:02.609Z,7.60
2017-11-27T03:58:30.044Z,4.47
2017-11-27T04:00:57.466Z,4.70
2017-11-27T04:03:24.888Z,5.20
2017-11-27T04:05:52.313Z,4.90
2017-11-27T04:08:19.736Z,5.33
2017-11-27T04:10:47.152Z,4.53
2017-11-27T04:13:14.598Z,5.90
2017-11-27T04:15:42.782Z,4.97
2017-11-27T04:18:10.200Z,6.10
2017-11-27T04:20:37.629Z,4.90
2017-11-27T04:23:05.045Z,6.27
2017-11-27T04:25:33.236Z,5.87
2017-11-27T04:28:02.593Z,7.77
2017-11-27T04:30:30.024Z,6.60
2017-11-27T04:32:57.450Z,5.70
2017-11-27T04:35:24.887Z,7.07
2017-11-27T04:37:53.077Z,6.47
2017-11-27T04:40:20.505Z,6.67
2017-11-27T04:42:47.917Z,7.60
2017-11-27T04:45:15.369Z,5.87
2017-11-27T04:47:42.800Z,5.60
2017-11-27T04:50:10.229Z,7.07
2017-11-27T04:52:37.655Z,6.83
2017-11-27T04:55:05.090Z,5.83
2017-11-27T04:57:32.516Z,7.43
2017-11-27T05:00:00.705Z,6.50
2017-11-27T05:02:28.147Z,6.40
2017-11-27T05:04:56.342Z,7.13
2017-11-27T05:07:23.778Z,7.30
2017-11-27T05:09:51.973Z,8.80
2017-11-27T05:12:19.413Z,7.00
2017-11-27T05:14:47.610Z,8.17
2017-11-27T05:17:15.038Z,6.70
2017-11-27T05:19:43.239Z,5.47
2017-11-27T05:22:10.659Z,5.60
2017-11-27T05:24:38.092Z,5.70
2017-11-27T05:27:05.531Z,6.60
2017-11-27T05:29:32.961Z,6.93
2017-11-27T05:32:00.385Z,6.53
2017-11-27T05:34:27.816Z,5.60
2017-11-27T05:36:55.253Z,6.40
2017-11-27T05:39:22.692Z,5.90
2017-11-27T05:41:50.118Z,5.93
2017-11-27T05:44:18.338Z,5.63
2017-11-27T05:46:45.760Z,5.97
2017-11-27T05:49:13.185Z,5.70
2017-11-27T05:51:40.621Z,5.30
2017-11-27T05:54:08.052Z,5.40
2017-11-27T05:56:35.474Z,5.10
2017-11-27T05:59:03.673Z,6.47
2017-11-27T06:01:31.110Z,5.00
2017-11-27T06:03:59.311Z,5.83
2017-11-27T06:06:26.743Z,6.07
2017-11-27T06:08:54.937Z,5.93
2017-11-27T06:11:22.369Z,6.40
2017-11-27T06:13:50.569Z,7.50
2017-11-27T06:16:17.994Z,7.50
2017-11-27T06:18:45.455Z,6.30
2017-11-27T06:21:13.649Z,7.27
2017-11-27T06:23:41.081Z,6.43
2017-11-27T06:26:08.513Z,5.97
2017-11-27T06:28:35.945Z,5.73
2017-11-27T06:31:03.382Z,5.40
2017-11-27T06:33:30.822Z,6.13
2017-11-27T06:35:58.256Z,5.90
2017-11-27T06:38:25.697Z,6.50
2017-11-27T06:40:53.185Z,6.00
2017-11-27T06:43:21.385Z,5.47
2017-11-27T06:45:48.819Z,6.07
2017-11-27T06:48:17.029Z,6.27
2017-11-27T06:50:44.462Z,6.13
2017-11-27T06:53:11.897Z,6.57
2017-11-27T06:55:39.371Z,6.80
2017-11-27T06:58:07.553Z,5.50
2017-11-27T07:00:34.996Z,6.90
2017-11-27T07:03:02.417Z,6.83
2017-11-27T07:05:29.852Z,7.40
2017-11-27T07:07:57.279Z,6.60
2017-11-27T07:10:24.718Z,6.70
2017-11-27T07:12:52.145Z,7.53
2017-11-27T07:15:19.570Z,7.43
2017-11-27T07:17:46.998Z,8.23
2017-11-27T07:20:14.443Z,8.07
2017-11-27T07:22:41.870Z,8.47
2017-11-27T07:25:09.312Z,7.90
2017-11-27T07:27:36.749Z,8.03
2017-11-27T07:30:04.177Z,8.23
2017-11-27T07:32:31.610Z,7.73
2017-11-27T07:34:59.034Z,7.27
2017-11-27T07:37:32.060Z,6.90
2017-11-27T07:39:59.484Z,7.70
2017-11-27T07:42:26.921Z,7.70
2017-11-27T07:44:54.389Z,6.40
2017-11-27T07:47:21.938Z,6.87
2017-11-27T07:49:49.368Z,6.97
2017-11-27T07:52:17.573Z,7.43
2017-11-27T07:54:44.994Z,6.70
2017-11-27T07:57:12.426Z,5.50
2017-11-27T07:59:39.873Z,6.67
2017-11-27T08:02:07.317Z,6.47
2017-11-27T08:04:34.742Z,5.70
2017-11-27T08:07:02.937Z,5.40
2017-11-27T08:09:30.371Z,5.43
2017-11-27T08:11:58.562Z,5.70
2017-11-27T08:14:25.984Z,5.87
2017-11-27T08:16:53.410Z,5.07
2017-11-27T08:19:20.852Z,6.23
2017-11-27T08:21:48.277Z,5.90
2017-11-27T08:24:15.708Z,6.20
2017-11-27T08:26:43.133Z,5.50
2017-11-27T08:29:10.586Z,7.37
2017-11-27T08:31:38.018Z,7.20
2017-11-27T08:34:05.453Z,7.10
2017-11-27T08:36:33.665Z,7.13
2017-11-27T08:39:01.089Z,6.17
2017-11-27T08:41:29.284Z,6.90
2017-11-27T08:43:56.711Z,6.50
2017-11-27T08:46:24.911Z,7.37
2017-11-27T08:48:52.337Z,7.07
2017-11-27T08:51:20.544Z,6.63
2017-11-27T08:53:47.960Z,5.20
2017-11-27T08:56:15.385Z,7.20
2017-11-27T08:58:42.824Z,7.73
2017-11-27T09:01:10.245Z,7.33
2017-11-27T09:03:38.435Z,7.90
2017-11-27T09:06:05.876Z,8.93
2017-11-27T09:08:34.079Z,8.90
2017-11-27T09:11:03.081Z,9.10
2017-11-27T09:13:30.508Z,9.83
2017-11-27T09:15:58.718Z,10.30
2017-11-27T09:18:26.236Z,9.97
2017-11-27T09:20:54.436Z,9.47
2017-11-27T09:23:21.866Z,8.83
2017-11-27T09:25:50.066Z,10.93
2017-11-27T09:28:17.494Z,12.33
2017-11-27T09:30:45.688Z,12.03
2017-11-27T09:33:13.117Z,10.23
2017-11-27T09:35:40.557Z,10.87
2017-11-27T09:38:07.994Z,13.03
2017-11-27T09:40:35.437Z,11.30
2017-11-27T09:43:02.881Z,11.20
2017-11-27T09:45:31.068Z,11.50
2017-11-27T09:47:58.494Z,12.73
2017-11-27T09:50:25.940Z,11.37
2017-11-27T09:52:54.309Z,9.27
2017-11-27T09:55:21.745Z,10.90
2017-11-27T09:57:49.186Z,10.43
2017-11-27T10:00:16.626Z,11.10
2017-11-27T10:02:44.054Z,11.67
2017-11-27T10:05:12.250Z,8.73
2017-11-27T10:07:39.685Z,9.83
2017-11-27T10:10:08.890Z,9.80
2017-11-27T10:12:37.084Z,8.10
2017-11-27T10:15:04.509Z,9.53
2017-11-27T10:17:32.725Z,10.60
2017-11-27T10:20:00.137Z,9.73
2017-11-27T10:22:27.574Z,10.17
2017-11-27T10:24:55.001Z,8.00
2017-11-27T10:27:22.440Z,8.73
2017-11-27T10:29:49.871Z,9.03
2017-11-27T10:32:17.298Z,10.70
2017-11-27T10:34:44.730Z,10.33
2017-11-27T10:37:12.149Z,8.40
2017-11-27T10:39:40.352Z,8.87
2017-11-27T10:42:07.841Z,9.60
2017-11-27T10:44:35.297Z,10.17
2017-11-27T10:47:02.708Z,8.90
2017-11-27T10:49:30.139Z,9.97
2017-11-27T10:51:58.328Z,10.50
2017-11-27T10:54:26.530Z,8.40
2017-11-27T10:56:53.949Z,9.10
2017-11-27T10:59:22.151Z,9.90
2017-11-27T11:01:49.570Z,10.20
2017-11-27T11:04:17.018Z,10.33
2017-11-27T11:06:44.441Z,9.00
2017-11-27T11:09:12.865Z,7.90
2017-11-27T11:11:40.298Z,12.60
2017-11-27T11:14:07.736Z,9.10
2017-11-27T11:16:35.174Z,9.57
2017-11-27T11:19:02.600Z,7.07
2017-11-27T11:21:30.839Z,9.60
2017-11-27T11:23:58.244Z,8.30
2017-11-27T11:26:26.445Z,9.13
2017-11-27T11:28:53.865Z,9.07
2017-11-27T11:31:22.167Z,8.80
2017-11-27T11:33:50.353Z,8.23
2017-11-27T11:36:17.789Z,7.03
2017-11-27T11:38:45.965Z,7.27
2017-11-27T11:41:13.478Z,8.50
2017-11-27T11:43:40.912Z,6.87
2017-11-27T11:46:08.341Z,7.07
2017-11-27T11:48:35.798Z,7.50
2017-11-27T11:51:03.255Z,7.73
2017-11-27T11:53:30.681Z,5.97
2017-11-27T11:55:58.110Z,6.77
2017-11-27T11:58:25.583Z,6.57
2017-11-27T12:00:52.997Z,6.87
2017-11-27T12:03:20.421Z,7.10
2017-11-27T12:05:48.618Z,6.50
2017-11-27T12:08:16.066Z,7.20
2017-11-27T12:10:43.494Z,5.93
2017-11-27T12:13:10.945Z,5.70
2017-11-27T12:15:38.358Z,6.60
2017-11-27T12:18:05.789Z,6.90
2017-11-27T12:20:33.982Z,4.70
2017-11-27T12:23:01.414Z,5.40
2017-11-27T12:25:29.601Z,5.90
2017-11-27T12:27:57.035Z,6.20
2017-11-27T12:30:25.229Z,5.50
2017-11-27T12:32:52.658Z,5.03
2017-11-27T12:35:20.083Z,4.40
2017-11-27T12:37:47.514Z,6.03
2017-11-27T12:40:14.941Z,6.50
2017-11-27T12:42:42.370Z,5.20
2017-11-27T12:45:10.875Z,5.30
2017-11-27T12:47:38.320Z,6.00
2017-11-27T12:50:05.765Z,4.40
2017-11-27T12:52:33.181Z,6.33
2017-11-27T12:55:00.601Z,5.17
2017-11-27T12:57:28.886Z,5.70
2017-11-27T12:59:57.123Z,5.53
2017-11-27T13:02:24.558Z,5.70
2017-11-27T13:04:51.969Z,4.10
2017-11-27T13:07:20.161Z,3.30
2017-11-27T13:09:47.599Z,2.57
2017-11-27T13:12:15.021Z,2.10
2017-11-27T13:14:42.444Z,2.60
2017-11-27T13:17:09.872Z,2.77
2017-11-27T13:19:38.071Z,2.67
2017-11-27T13:22:05.502Z,3.37
2017-11-27T13:24:34.785Z,2.67
2017-11-27T13:27:02.246Z,2.10
2017-11-27T13:29:29.665Z,2.40
2017-11-27T13:31:57.106Z,2.20
2017-11-27T13:34:24.539Z,2.20
2017-11-27T13:36:52.729Z,1.77
2017-11-27T13:39:20.149Z,1.87
2017-11-27T13:41:47.588Z,1.87
2017-11-27T13:44:15.022Z,1.77
2017-11-27T13:46:42.455Z,2.00
2017-11-27T13:49:09.884Z,1.47
2017-11-27T13:51:39.193Z,1.47
2017-11-27T13:54:07.414Z,1.60
2017-11-27T13:56:35.723Z,2.00
2017-11-27T13:59:03.140Z,1.67
2017-11-27T14:01:30.564Z,1.77
2017-11-27T14:03:58.781Z,2.20
2017-11-27T14:06:26.215Z,2.23
2017-11-27T14:08:53.637Z,2.57
2017-11-27T14:11:21.879Z,2.03
2017-11-27T14:13:49.293Z,2.23
2017-11-27T14:16:17.489Z,2.30
2017-11-27T14:18:44.913Z,2.47
2017-11-27T14:21:13.108Z,2.37
2017-11-27T14:23:40.536Z,2.13
2017-11-27T14:26:08.757Z,1.93
2017-11-27T14:28:36.187Z,1.83
2017-11-27T14:31:03.613Z,2.80
2017-11-27T14:33:31.038Z,2.00
2017-11-27T14:35:58.479Z,1.70
2017-11-27T14:38:25.911Z,1.90
2017-11-27T14:40:53.342Z,2.40
2017-11-27T14:43:20.769Z,1.70
2017-11-27T14:45:48.205Z,1.70
2017-11-27T14:48:15.629Z,2.10
2017-11-27T14:50:43.842Z,2.50
2017-11-27T14:53:11.261Z,2.00
2017-11-27T14:55:39.461Z,2.40
2017-11-27T14:58:06.886Z,2.53
2017-11-27T15:00:34.333Z,2.20
2017-11-27T15:03:01.759Z,1.40
2017-11-27T15:05:29.186Z,1.93
2017-11-27T15:07:56.616Z,1.73
2017-11-27T15:10:24.807Z,1.70
2017-11-27T15:12:53.005Z,1.70
2017-11-27T15:15:20.423Z,1.70
2017-11-27T15:17:48.613Z,1.87
2017-11-27T15:20:16.037Z,1.67
2017-11-27T15:22:43.470Z,2.20
2017-11-27T15:25:10.894Z,2.10
2017-11-27T15:27:38.327Z,1.70
2017-11-27T15:30:06.593Z,3.00
2017-11-27T15:32:34.789Z,4.60
2017-11-27T15:35:02.226Z,6.50
2017-11-27T15:37:29.650Z,2.37
2017-11-27T15:39:57.079Z,1.87
2017-11-27T15:42:24.506Z,2.30
2017-11-27T15:44:52.722Z,2.67
2017-11-27T15:47:20.142Z,1.93
2017-11-27T15:49:47.722Z,2.07
2017-11-27T15:52:15.153Z,1.77
2017-11-27T15:54:43.353Z,2.00
2017-11-27T15:57:10.769Z,1.90
2017-11-27T15:59:38.209Z,1.73
2017-11-27T16:02:05.642Z,1.87
2017-11-27T16:04:33.081Z,1.73
2017-11-27T16:07:00.497Z,1.60
2017-11-27T16:09:27.930Z,1.60
2017-11-27T16:11:56.113Z,1.53
2017-11-27T16:14:23.543Z,1.50
2017-11-27T16:16:50.965Z,1.73
2017-11-27T16:19:18.380Z,1.63
2017-11-27T16:21:45.809Z,1.70
2017-11-27T16:24:13.233Z,1.30
2017-11-27T16:26:40.653Z,1.60
2017-11-27T16:29:08.074Z,1.50
2017-11-27T16:31:35.508Z,2.80
2017-11-27T16:34:02.995Z,2.47
2017-11-27T16:36:30.433Z,2.23
2017-11-27T16:38:57.850Z,1.70
2017-11-27T16:41:25.278Z,1.90
2017-11-27T16:43:52.709Z,1.43
2017-11-27T16:46:20.121Z,1.37
2017-11-27T16:48:47.558Z,1.77
2017-11-27T16:51:14.987Z,1.50
2017-11-27T16:53:42.424Z,1.43
2017-11-27T16:56:10.616Z,1.57
2017-11-27T16:58:38.037Z,1.57
2017-11-27T17:01:06.228Z,1.67
2017-11-27T17:03:33.649Z,1.23
2017-11-27T17:06:01.077Z,1.50
2017-11-27T17:08:28.511Z,1.33
2017-11-27T17:10:55.937Z,1.27
2017-11-27T17:13:24.136Z,1.40
2017-11-27T17:15:51.549Z,1.30
2017-11-27T17:18:19.022Z,1.20
2017-11-27T17:20:48.528Z,1.97
2017-11-27T17:23:16.718Z,0.80
2017-11-27T17:25:44.150Z,1.17
2017-11-27T17:28:11.569Z,1.40
2017-11-27T17:30:38.993Z,1.30
2017-11-27T17:33:06.416Z,1.10
2017-11-27T17:35:33.837Z,1.00
2017-11-27T17:38:02.025Z,1.30
2017-11-27T17:40:29.467Z,1.17
2017-11-27T17:42:56.944Z,1.63
2017-11-27T17:45:24.382Z,1.30
2017-11-27T17:47:51.807Z,1.30
2017-11-27T17:50:19.242Z,1.50
2017-11-27T17:52:46.665Z,1.83
2017-11-27T17:55:14.146Z,1.40
2017-11-27T17:57:41.569Z,1.70
2017-11-27T18:00:08.994Z,1.43
2017-11-27T18:02:36.417Z,1.80
2017-11-27T18:05:03.837Z,1.37
2017-11-27T18:07:31.303Z,1.50
2017-11-27T18:09:58.698Z,1.40
2017-11-27T18:12:26.979Z,1.17
2017-11-27T18:14:55.168Z,1.73
2017-11-27T18:17:22.593Z,1.33
2017-11-27T18:19:50.022Z,1.40
2017-11-27T18:22:19.461Z,1.40
2017-11-27T18:24:46.878Z,1.27
2017-11-27T18:27:14.308Z,1.40
2017-11-27T18:29:41.729Z,1.30
2017-11-27T18:32:09.161Z,1.23
2017-11-27T18:34:36.586Z,1.57
2017-11-27T18:37:04.009Z,1.67
2017-11-27T18:39:32.194Z,1.60
2017-11-27T18:42:00.383Z,1.20
2017-11-27T18:44:27.807Z,1.23
2017-11-27T18:46:55.985Z,1.00
2017-11-27T18:49:24.177Z,1.70
2017-11-27T18:51:51.594Z,1.83
2017-11-27T18:54:19.030Z,2.00
2017-11-27T18:56:46.447Z,1.60
2017-11-27T18:59:13.873Z,1.10
2017-11-27T19:01:41.329Z,1.50
2017-11-27T19:04:08.753Z,1.57
2017-11-27T19:06:36.177Z,1.23
2017-11-27T19:09:03.607Z,1.70
2017-11-27T19:11:31.829Z,1.40
2017-11-27T19:13:59.234Z,1.30
2017-11-27T19:16:26.666Z,1.30
2017-11-27T19:18:54.152Z,1.73
2017-11-27T19:21:21.594Z,1.23
2017-11-27T19:23:49.019Z,1.57
2017-11-27T19:26:16.449Z,1.53
2017-11-27T19:28:43.871Z,1.13
2017-11-27T19:31:12.368Z,1.13
2017-11-27T19:33:40.553Z,1.30
2017-11-27T19:36:07.992Z,1.40
2017-11-27T19:38:35.418Z,1.37
2017-11-27T19:41:02.858Z,1.10
2017-11-27T19:43:30.299Z,1.47
2017-11-27T19:45:57.720Z,1.90
2017-11-27T19:48:25.145Z,1.03
2017-11-27T19:50:52.575Z,1.40
2017-11-27T19:53:19.994Z,1.23
2017-11-27T19:55:48.198Z,1.40
2017-11-27T19:58:15.630Z,1.47
2017-11-27T20:00:43.827Z,1.50
2017-11-27T20:03:11.277Z,1.27
2017-11-27T20:05:38.709Z,1.23
2017-11-27T20:08:06.910Z,1.10
2017-11-27T20:10:34.345Z,0.97
2017-11-27T20:13:01.761Z,1.30
2017-11-27T20:15:29.222Z,1.80
2017-11-27T20:17:56.637Z,1.23
2017-11-27T20:20:24.997Z,1.10
2017-11-27T20:22:53.191Z,1.10
2017-11-27T20:25:20.622Z,1.20
2017-11-27T20:27:48.813Z,1.07
2017-11-27T20:30:17.025Z,1.00
2017-11-27T20:32:44.468Z,0.90
2017-11-27T20:35:11.873Z,0.90
2017-11-27T20:37:39.293Z,1.40
2017-11-27T20:40:06.743Z,1.00
2017-11-27T20:42:34.163Z,1.20
2017-11-27T20:45:02.357Z,1.40
2017-11-27T20:47:29.811Z,1.20
2017-11-27T20:49:57.249Z,1.13
2017-11-27T20:52:25.450Z,1.00
2017-11-27T20:54:52.875Z,1.23
2017-11-27T20:57:21.078Z,1.10
2017-11-27T20:59:48.497Z,1.20
2017-11-27T21:02:15.929Z,0.90
2017-11-27T21:04:43.365Z,0.87
2017-11-27T21:07:10.801Z,0.80
2017-11-27T21:09:38.228Z,0.80
2017-11-27T21:12:05.674Z,1.17
2017-11-27T21:14:33.093Z,1.10
2017-11-27T21:17:00.498Z,1.10
2017-11-27T21:19:27.926Z,0.90
2017-11-27T21:21:56.353Z,0.90
2017-11-27T21:24:24.567Z,1.10
2017-11-27T21:26:51.973Z,1.13
2017-11-27T21:29:20.196Z,1.10
2017-11-27T21:31:47.593Z,1.17
2017-11-27T21:34:15.021Z,1.07
2017-11-27T21:36:42.443Z,1.13
2017-11-27T21:39:09.889Z,1.10
2017-11-27T21:41:38.073Z,0.93
2017-11-27T21:44:05.498Z,1.10
2017-11-27T21:46:32.917Z,1.10
2017-11-27T21:49:00.349Z,0.97
2017-11-27T21:51:27.771Z,1.30
2017-11-27T21:53:55.193Z,1.10
2017-11-27T21:56:22.613Z,1.27
2017-11-27T21:58:50.043Z,1.20
2017-11-27T22:01:17.457Z,1.07
2017-11-27T22:03:44.879Z,1.17
2017-11-27T22:06:12.310Z,0.80
2017-11-27T22:08:39.729Z,1.10
2017-11-27T22:11:07.158Z,1.00
2017-11-27T22:13:34.592Z,0.77
2017-11-27T22:16:02.005Z,1.10
2017-11-27T22:18:29.426Z,1.10
2017-11-27T22:20:56.876Z,1.20
2017-11-27T22:23:24.298Z,1.10
2017-11-27T22:25:51.724Z,1.70
2017-11-27T22:28:19.147Z,1.47
2017-11-27T22:30:46.574Z,1.30
2017-11-27T22:33:13.989Z,1.20
2017-11-27T22:35:42.409Z,1.07
2017-11-27T22:38:09.839Z,0.93
2017-11-27T22:40:37.287Z,0.90
2017-11-27T22:43:04.716Z,0.87
2017-11-27T22:45:32.131Z,1.03
2017-11-27T22:47:59.561Z,1.63
2017-11-27T22:50:26.973Z,1.10
2017-11-27T22:52:54.414Z,1.03
2017-11-27T22:55:21.835Z,1.07
2017-11-27T22:57:49.263Z,0.97
2017-11-27T23:00:16.681Z,1.50
2017-11-27T23:02:44.881Z,0.90
2017-11-27T23:05:12.305Z,1.00
2017-11-27T23:07:39.739Z,1.00
2017-11-27T23:10:07.169Z,1.37
2017-11-27T23:12:34.589Z,1.17
2017-11-27T23:15:02.068Z,1.30
2017-11-27T23:17:29.491Z,0.90
2017-11-27T23:19:56.949Z,1.57
2017-11-27T23:22:24.365Z,1.00
2017-11-27T23:24:51.794Z,1.10
2017-11-27T23:27:19.212Z,0.83
2017-11-27T23:29:46.639Z,0.90
2017-11-27T23:32:14.057Z,1.00
2017-11-27T23:34:41.476Z,1.20
2017-11-27T23:37:08.912Z,1.10
2017-11-27T23:39:36.330Z,1.60
2017-11-27T23:42:03.752Z,1.00
2017-11-27T23:44:31.164Z,1.30
2017-11-27T23:46:58.581Z,0.90
2017-11-27T23:49:26.772Z,0.87
2017-11-27T23:51:54.220Z,1.00
2017-11-27T23:54:21.641Z,1.00
2017-11-27T23:56:49.059Z,1.03
